McCutchen Crossroads, South Carolina
Current Conditions -  °F | °C
As of 1:35 PM on Thursday 27 Nov 2014 (Local Time) from KCDN Reporting Station
Broken Clouds Broken Clouds  
Wind Chill: 54°   Ceiling: 5000
Heat Index: 54°   Visibility: 10mi
Dew Point: 28°   Wind: 17mph
Humidity: 38%   Direction: 290°WNW
Pressure: 30.11"   Gusts: 25mph
Location:  34.2324°N, 80.2824°W
Report Text: KCDN 271835Z AUTO 29015G22KT 10SM BKN050 12/M02 A3011 RMK AO2 TSNO
Loading
Personal Weather Stations






























Interactive Weather Map New forecast layout! Learn more

10-Day Weather Forecast

Advertisements
Track Severe Weather on mobile